Time;durP1;ratioP1;P1;durP2;ratioP2;P2;SDS_P1;SDS_P2;PMS_P1;PMS_P2;Temp;Humidity;BMP_temperature;BMP_pressure;BME280_temperature;BME280_humidity;BME280_pressure;Samples;Min_cycle;Max_cycle;Signal;HPM_P1;HPM_P2
2023/08/12 00:00:39;;;;;;;10.73;6.50;;;;;;;;;;746437;185;920715;-64
2023/08/12 00:03:05;;;;;;;6.53;4.50;;;;;;;;;;746702;185;917524;-59
2023/08/12 00:05:31;;;;;;;13.43;5.17;;;;;;;;;;749571;185;817952;-58
2023/08/12 00:07:57;;;;;;;6.87;5.22;;;;;;;;;;745612;184;918589;-59
2023/08/12 00:10:22;;;;;;;5.80;4.93;;;;;;;;;;748956;184;816193;-58
2023/08/12 00:12:48;;;;;;;8.33;5.23;;;;;;;;;;752904;185;918304;-59
2023/08/12 00:15:14;;;;;;;8.23;4.80;;;;;;;;;;751187;185;920774;-64
2023/08/12 00:17:41;;;;;;;8.70;5.30;;;;;;;;;;745488;184;919317;-59
2023/08/12 00:20:08;;;;;;;7.77;5.27;;;;;;;;;;755344;184;909200;-60
2023/08/12 00:22:32;;;;;;;6.47;5.43;;;;;;;;;;750629;184;913838;-64
2023/08/12 00:24:58;;;;;;;8.83;5.33;;;;;;;;;;743327;184;818528;-64
2023/08/12 00:27:24;;;;;;;11.00;5.70;;;;;;;;;;746525;184;928021;-59
2023/08/12 00:29:50;;;;;;;7.10;6.27;;;;;;;;;;751213;184;919188;-58
2023/08/12 00:32:16;;;;;;;7.75;4.62;;;;;;;;;;743208;184;916839;-59
2023/08/12 00:34:41;;;;;;;15.50;5.10;;;;;;;;;;742892;184;890460;-64
2023/08/12 00:37:07;;;;;;;5.63;4.67;;;;;;;;;;750884;185;919278;-65
2023/08/12 00:39:33;;;;;;;8.57;4.80;;;;;;;;;;746371;185;918121;-58
2023/08/12 00:41:59;;;;;;;6.40;4.20;;;;;;;;;;745876;185;918457;-59
2023/08/12 00:44:25;;;;;;;7.07;5.10;;;;;;;;;;753747;185;918675;-64
2023/08/12 00:46:51;;;;;;;7.07;5.20;;;;;;;;;;739310;188;924789;-59
2023/08/12 00:49:16;;;;;;;7.57;5.03;;;;;;;;;;738342;188;919653;-58
2023/08/12 00:51:42;;;;;;;7.30;5.10;;;;;;;;;;744507;185;919520;-59
2023/08/12 00:54:08;;;;;;;6.80;5.20;;;;;;;;;;739174;188;918826;-57
2023/08/12 00:56:34;;;;;;;7.82;5.65;;;;;;;;;;731469;187;919407;-58
2023/08/12 00:59:00;;;;;;;5.03;4.07;;;;;;;;;;730116;188;921576;-65
2023/08/12 01:01:26;;;;;;;12.27;5.40;;;;;;;;;;738851;190;918996;-66
2023/08/12 01:03:51;;;;;;;7.00;4.60;;;;;;;;;;741030;188;919159;-65
2023/08/12 01:06:17;;;;;;;7.97;4.80;;;;;;;;;;740064;186;917267;-65
2023/08/12 01:08:44;;;;;;;5.12;4.60;;;;;;;;;;750270;184;803111;-59
2023/08/12 01:11:12;;;;;;;5.97;4.27;;;;;;;;;;743670;186;919688;-64
2023/08/12 01:13:53;;;;;;;6.18;4.85;;;;;;;;;;745941;185;923954;-64
2023/08/12 01:16:19;;;;;;;7.80;4.80;;;;;;;;;;752524;183;894478;-60
2023/08/12 01:18:45;;;;;;;8.17;5.00;;;;;;;;;;747788;184;868534;-65
2023/08/12 01:21:12;;;;;;;7.87;4.03;;;;;;;;;;749544;184;981761;-66
2023/08/12 01:23:38;;;;;;;6.67;5.17;;;;;;;;;;745675;184;919365;-61
2023/08/12 01:26:03;;;;;;;6.20;4.60;;;;;;;;;;746462;184;924174;-66
2023/08/12 01:28:28;;;;;;;5.97;5.03;;;;;;;;;;750677;185;916841;-66
2023/08/12 01:30:57;;;;;;;12.77;5.17;;;;;;;;;;746621;185;919104;-61
2023/08/12 01:33:22;;;;;;;6.70;4.20;;;;;;;;;;744639;185;919647;-67
2023/08/12 01:35:48;;;;;;;7.70;5.20;;;;;;;;;;752219;184;911044;-66
2023/08/12 01:38:13;;;;;;;7.33;5.70;;;;;;;;;;741072;185;934032;-60
2023/08/12 01:40:40;;;;;;;6.43;4.30;;;;;;;;;;732761;188;924014;-66
2023/08/12 01:43:07;;;;;;;9.30;5.23;;;;;;;;;;743565;185;922335;-66
2023/08/12 01:45:32;;;;;;;5.57;4.40;;;;;;;;;;747255;185;918449;-60
2023/08/12 01:47:57;;;;;;;6.07;4.40;;;;;;;;;;736008;188;918995;-59
2023/08/12 01:50:23;;;;;;;6.95;5.45;;;;;;;;;;733401;186;896494;-66
2023/08/12 01:52:49;;;;;;;6.25;5.07;;;;;;;;;;736624;188;819176;-68
2023/08/12 01:55:15;;;;;;;6.57;4.80;;;;;;;;;;740743;187;920380;-61
2023/08/12 01:57:41;;;;;;;5.23;4.53;;;;;;;;;;744661;185;916990;-61
2023/08/12 02:00:08;;;;;;;6.90;4.13;;;;;;;;;;749825;184;919479;-67
2023/08/12 02:02:33;;;;;;;6.53;4.97;;;;;;;;;;747263;185;918827;-66
2023/08/12 02:04:59;;;;;;;8.60;4.77;;;;;;;;;;742272;185;918868;-61
2023/08/12 02:07:25;;;;;;;7.80;4.87;;;;;;;;;;738634;187;922406;-65
2023/08/12 02:09:50;;;;;;;7.50;4.83;;;;;;;;;;737210;188;816222;-66
2023/08/12 02:12:16;;;;;;;5.40;4.80;;;;;;;;;;732777;190;916174;-60
2023/08/12 02:14:42;;;;;;;4.53;3.83;;;;;;;;;;737196;186;918237;-66
2023/08/12 02:17:08;;;;;;;9.40;5.70;;;;;;;;;;741096;188;923434;-65
2023/08/12 02:19:34;;;;;;;7.30;4.63;;;;;;;;;;740698;187;918799;-61
2023/08/12 02:22:00;;;;;;;5.33;4.83;;;;;;;;;;747656;186;917676;-61
2023/08/12 02:24:25;;;;;;;7.50;5.50;;;;;;;;;;750900;185;919590;-67
2023/08/12 02:26:51;;;;;;;8.70;4.93;;;;;;;;;;745979;185;908566;-59
2023/08/12 02:29:17;;;;;;;6.18;4.65;;;;;;;;;;745964;183;917903;-67
2023/08/12 02:31:43;;;;;;;6.53;5.17;;;;;;;;;;752231;184;914530;-61
2023/08/12 02:34:09;;;;;;;6.77;5.13;;;;;;;;;;745889;185;926092;-63
2023/08/12 02:36:35;;;;;;;6.60;4.57;;;;;;;;;;743840;186;918982;-65
2023/08/12 02:39:00;;;;;;;6.17;5.57;;;;;;;;;;745752;186;918908;-60
2023/08/12 02:41:26;;;;;;;5.93;4.70;;;;;;;;;;753188;185;869939;-65
2023/08/12 02:43:52;;;;;;;6.93;4.33;;;;;;;;;;747969;185;819061;-66
2023/08/12 02:46:18;;;;;;;11.63;4.70;;;;;;;;;;743762;185;917724;-60
2023/08/12 02:48:44;;;;;;;6.93;5.47;;;;;;;;;;756902;183;916131;-59
2023/08/12 02:51:10;;;;;;;6.40;5.63;;;;;;;;;;746695;185;911912;-61
2023/08/12 02:53:36;;;;;;;8.23;5.40;;;;;;;;;;745602;186;921715;-65
2023/08/12 02:56:01;;;;;;;6.40;5.30;;;;;;;;;;750689;184;914643;-60
2023/08/12 02:58:27;;;;;;;6.43;5.60;;;;;;;;;;748153;184;920162;-67
2023/08/12 03:00:53;;;;;;;8.40;5.43;;;;;;;;;;744183;185;915920;-66
2023/08/12 03:03:19;;;;;;;8.17;5.30;;;;;;;;;;745595;185;919165;-65
2023/08/12 03:05:47;;;;;;;8.93;5.80;;;;;;;;;;749993;184;918969;-67
2023/08/12 03:08:12;;;;;;;7.70;6.57;;;;;;;;;;735352;186;920950;-60
2023/08/12 03:10:38;;;;;;;7.53;6.18;;;;;;;;;;732763;187;918827;-59
2023/08/12 03:13:04;;;;;;;10.63;5.10;;;;;;;;;;744734;188;819859;-61
2023/08/12 03:15:30;;;;;;;9.03;5.90;;;;;;;;;;751667;184;919088;-66
2023/08/12 03:17:56;;;;;;;10.83;7.27;;;;;;;;;;740186;188;920398;-66
2023/08/12 03:20:22;;;;;;;8.80;6.40;;;;;;;;;;749139;186;918011;-61
2023/08/12 03:22:47;;;;;;;8.93;7.93;;;;;;;;;;735630;188;817931;-61
2023/08/12 03:25:15;;;;;;;11.30;7.17;;;;;;;;;;741540;187;925120;-60
2023/08/12 03:27:39;;;;;;;12.60;8.03;;;;;;;;;;733578;186;918414;-66
2023/08/12 03:30:05;;;;;;;8.40;7.45;;;;;;;;;;743078;184;918369;-60
2023/08/12 03:32:31;;;;;;;10.87;7.93;;;;;;;;;;747148;184;919166;-66
2023/08/12 03:34:57;;;;;;;9.73;8.13;;;;;;;;;;745387;184;919588;-67
2023/08/12 03:37:24;;;;;;;11.57;8.10;;;;;;;;;;749954;184;919057;-61
2023/08/12 03:39:50;;;;;;;10.03;7.90;;;;;;;;;;744350;184;913855;-62
2023/08/12 03:42:16;;;;;;;8.37;7.57;;;;;;;;;;744630;184;1038006;-66
2023/08/12 03:44:42;;;;;;;10.87;8.27;;;;;;;;;;753774;184;918901;-61
2023/08/12 03:47:07;;;;;;;7.83;6.97;;;;;;;;;;747751;185;919520;-61
2023/08/12 03:49:33;;;;;;;10.73;6.67;;;;;;;;;;748145;185;919404;-66
2023/08/12 03:51:59;;;;;;;9.97;7.53;;;;;;;;;;746394;185;932441;-59
2023/08/12 03:54:25;;;;;;;9.60;6.97;;;;;;;;;;747621;184;918620;-63
2023/08/12 03:56:51;;;;;;;10.60;6.77;;;;;;;;;;746129;184;918425;-65
2023/08/12 03:59:17;;;;;;;8.57;7.43;;;;;;;;;;746943;184;914480;-65
2023/08/12 04:01:42;;;;;;;7.90;6.60;;;;;;;;;;750844;184;918171;-61
2023/08/12 04:04:08;;;;;;;7.87;6.30;;;;;;;;;;747283;185;930238;-65
2023/08/12 04:06:34;;;;;;;6.80;5.97;;;;;;;;;;744434;185;920472;-61
2023/08/12 04:09:00;;;;;;;14.50;5.80;;;;;;;;;;747955;186;940016;-66
2023/08/12 04:11:26;;;;;;;12.60;6.43;;;;;;;;;;744584;184;817658;-64
2023/08/12 04:13:52;;;;;;;10.27;6.80;;;;;;;;;;743969;185;867043;-65
2023/08/12 04:16:18;;;;;;;7.68;6.12;;;;;;;;;;749146;185;919588;-65
2023/08/12 04:18:44;;;;;;;9.10;6.17;;;;;;;;;;749490;185;816286;-61
2023/08/12 04:21:10;;;;;;;8.23;6.87;;;;;;;;;;743546;188;927208;-61
2023/08/12 04:23:36;;;;;;;10.75;6.43;;;;;;;;;;745373;185;823631;-61
2023/08/12 04:26:01;;;;;;;9.70;6.67;;;;;;;;;;751773;185;883523;-67
2023/08/12 04:28:27;;;;;;;10.30;7.07;;;;;;;;;;746785;184;920212;-67
2023/08/12 04:30:53;;;;;;;8.13;6.33;;;;;;;;;;745418;185;903128;-66
2023/08/12 04:33:20;;;;;;;8.87;6.23;;;;;;;;;;750997;185;884883;-66
2023/08/12 04:35:46;;;;;;;13.60;7.83;;;;;;;;;;741535;185;820961;-62
2023/08/12 04:38:12;;;;;;;13.00;8.57;;;;;;;;;;749467;184;639328;-61
2023/08/12 04:40:38;;;;;;;12.30;7.50;;;;;;;;;;752425;184;906635;-62
2023/08/12 04:43:04;;;;;;;8.93;6.93;;;;;;;;;;749241;185;916458;-62
2023/08/12 04:45:30;;;;;;;8.93;7.80;;;;;;;;;;745305;185;918907;-62
2023/08/12 04:47:56;;;;;;;12.13;7.83;;;;;;;;;;746688;184;919310;-66
2023/08/12 04:50:21;;;;;;;9.40;8.00;;;;;;;;;;737836;186;916900;-66
2023/08/12 04:52:47;;;;;;;9.60;8.27;;;;;;;;;;741097;185;917418;-62
2023/08/12 04:55:13;;;;;;;9.10;8.07;;;;;;;;;;746572;185;915311;-65
2023/08/12 04:57:39;;;;;;;9.68;7.50;;;;;;;;;;753048;184;916200;-60
2023/08/12 05:00:08;;;;;;;10.17;8.27;;;;;;;;;;748487;184;921287;-66
2023/08/12 05:02:33;;;;;;;11.33;8.30;;;;;;;;;;750716;183;825869;-65
2023/08/12 05:04:59;;;;;;;9.67;7.67;;;;;;;;;;753051;185;918324;-62
2023/08/12 05:07:25;;;;;;;8.73;7.83;;;;;;;;;;753432;184;799255;-67
2023/08/12 05:09:51;;;;;;;8.10;7.30;;;;;;;;;;748607;184;913881;-61
2023/08/12 05:12:17;;;;;;;7.70;6.87;;;;;;;;;;744366;185;915124;-62
2023/08/12 05:14:43;;;;;;;12.63;7.73;;;;;;;;;;736528;186;923340;-60
2023/08/12 05:17:09;;;;;;;10.20;8.07;;;;;;;;;;744956;185;919703;-61
2023/08/12 05:19:34;;;;;;;9.00;7.10;;;;;;;;;;743593;185;919234;-62
2023/08/12 05:22:00;;;;;;;9.10;7.00;;;;;;;;;;748081;188;920231;-62
2023/08/12 05:24:26;;;;;;;11.10;8.57;;;;;;;;;;743605;185;919223;-67
2023/08/12 05:26:52;;;;;;;13.03;10.57;;;;;;;;;;744353;185;918143;-62
2023/08/12 05:29:18;;;;;;;13.73;10.57;;;;;;;;;;746574;184;940669;-61
2023/08/12 05:31:44;;;;;;;13.67;11.87;;;;;;;;;;743127;184;818164;-61
2023/08/12 05:34:09;;;;;;;9.63;8.47;;;;;;;;;;739494;185;920365;-61
2023/08/12 05:36:35;;;;;;;10.60;8.93;;;;;;;;;;745026;184;915256;-67
2023/08/12 05:39:01;;;;;;;10.00;8.30;;;;;;;;;;756063;184;811580;-61
2023/08/12 05:41:27;;;;;;;8.67;7.37;;;;;;;;;;756890;183;847672;-61
2023/08/12 05:43:53;;;;;;;12.00;8.50;;;;;;;;;;742665;187;809180;-62
2023/08/12 05:46:19;;;;;;;10.33;7.27;;;;;;;;;;742476;188;623532;-68
2023/08/12 05:48:44;;;;;;;7.60;6.80;;;;;;;;;;750917;184;623691;-68
2023/08/12 05:51:10;;;;;;;10.80;7.50;;;;;;;;;;749068;185;620052;-68
2023/08/12 05:53:36;;;;;;;7.10;6.33;;;;;;;;;;753306;185;621157;-69
2023/08/12 05:56:02;;;;;;;6.90;6.20;;;;;;;;;;743880;184;918921;-61
2023/08/12 05:58:28;;;;;;;10.35;6.70;;;;;;;;;;743284;184;919049;-68
2023/08/12 06:00:54;;;;;;;12.80;6.60;;;;;;;;;;744831;184;919783;-61
2023/08/12 06:03:19;;;;;;;7.20;6.40;;;;;;;;;;734980;187;916325;-61
2023/08/12 06:05:45;;;;;;;7.73;6.17;;;;;;;;;;743638;184;918619;-61
2023/08/12 06:08:11;;;;;;;7.70;6.53;;;;;;;;;;743406;184;919171;-60
2023/08/12 06:10:37;;;;;;;11.77;7.63;;;;;;;;;;748542;185;919153;-68
2023/08/12 06:13:03;;;;;;;7.53;6.47;;;;;;;;;;746154;184;921203;-68
2023/08/12 06:15:29;;;;;;;17.47;5.60;;;;;;;;;;744885;185;920705;-68
2023/08/12 06:17:55;;;;;;;7.70;5.83;;;;;;;;;;749650;184;919657;-60
2023/08/12 06:20:20;;;;;;;7.77;5.50;;;;;;;;;;748246;185;915513;-61
2023/08/12 06:22:46;;;;;;;21.97;6.30;;;;;;;;;;747431;184;918372;-67
2023/08/12 06:25:12;;;;;;;10.00;6.10;;;;;;;;;;752594;185;814958;-68
2023/08/12 06:27:38;;;;;;;6.73;5.80;;;;;;;;;;744938;184;919000;-61
2023/08/12 06:30:05;;;;;;;9.15;5.85;;;;;;;;;;745466;185;919527;-66
2023/08/12 06:32:30;;;;;;;7.20;5.70;;;;;;;;;;742517;188;924426;-61
2023/08/12 06:34:56;;;;;;;7.20;5.87;;;;;;;;;;749284;184;917638;-60
2023/08/12 06:37:22;;;;;;;7.47;5.30;;;;;;;;;;748692;185;914952;-67
2023/08/12 06:39:48;;;;;;;7.60;5.50;;;;;;;;;;739594;188;871574;-61
2023/08/12 06:42:13;;;;;;;5.50;5.00;;;;;;;;;;741607;189;918190;-60
2023/08/12 06:44:39;;;;;;;7.60;5.03;;;;;;;;;;738351;186;941125;-61
2023/08/12 06:47:05;;;;;;;6.18;5.35;;;;;;;;;;729484;186;933982;-61
2023/08/12 06:49:31;;;;;;;6.93;5.43;;;;;;;;;;741523;186;919509;-60
2023/08/12 06:51:57;;;;;;;12.77;4.97;;;;;;;;;;739619;188;918786;-60
2023/08/12 06:54:23;;;;;;;8.95;5.28;;;;;;;;;;737539;188;918144;-69
2023/08/12 06:56:48;;;;;;;6.53;5.27;;;;;;;;;;741902;185;918888;-66
2023/08/12 06:59:14;;;;;;;7.50;5.27;;;;;;;;;;749146;186;919699;-62
2023/08/12 07:01:40;;;;;;;6.17;4.80;;;;;;;;;;748946;185;918942;-68
2023/08/12 07:04:06;;;;;;;11.80;5.20;;;;;;;;;;743904;186;919546;-61
2023/08/12 07:06:32;;;;;;;6.43;5.20;;;;;;;;;;747709;184;821167;-61
2023/08/12 07:08:58;;;;;;;8.07;5.00;;;;;;;;;;744477;185;920083;-70
2023/08/12 07:11:23;;;;;;;7.85;5.28;;;;;;;;;;745166;184;915978;-61
2023/08/12 07:13:49;;;;;;;7.10;4.70;;;;;;;;;;752526;184;630446;-61
2023/08/12 07:16:15;;;;;;;5.90;4.27;;;;;;;;;;747595;184;920933;-65
2023/08/12 07:18:41;;;;;;;5.53;4.13;;;;;;;;;;746159;184;921791;-61
2023/08/12 07:21:07;;;;;;;6.60;4.00;;;;;;;;;;746658;184;919707;-62
2023/08/12 07:23:33;;;;;;;7.43;4.13;;;;;;;;;;752545;185;918153;-68
2023/08/12 07:25:58;;;;;;;7.50;4.70;;;;;;;;;;750337;184;792231;-68
2023/08/12 07:28:24;;;;;;;8.80;5.20;;;;;;;;;;747071;185;619563;-62
2023/08/12 07:30:52;;;;;;;5.20;4.10;;;;;;;;;;753223;186;629407;-61
2023/08/12 07:33:16;;;;;;;5.50;4.00;;;;;;;;;;745465;188;618118;-64
2023/08/12 07:35:42;;;;;;;6.87;4.80;;;;;;;;;;745230;184;929343;-69
2023/08/12 07:38:08;;;;;;;6.40;4.80;;;;;;;;;;750448;185;917597;-60
2023/08/12 07:40:33;;;;;;;5.33;4.27;;;;;;;;;;743848;184;918768;-61
2023/08/12 07:42:59;;;;;;;7.23;3.60;;;;;;;;;;742342;185;919309;-61
2023/08/12 07:45:25;;;;;;;5.33;4.40;;;;;;;;;;748945;185;818035;-61
2023/08/12 07:47:51;;;;;;;6.43;4.40;;;;;;;;;;745882;184;919179;-61
2023/08/12 07:50:17;;;;;;;6.37;3.87;;;;;;;;;;744023;185;919113;-62
2023/08/12 07:52:43;;;;;;;4.30;3.40;;;;;;;;;;745254;185;850765;-62
2023/08/12 07:55:09;;;;;;;4.70;3.50;;;;;;;;;;749655;186;815484;-63
2023/08/12 07:57:34;;;;;;;5.73;3.50;;;;;;;;;;744593;185;919623;-71
2023/08/12 08:00:00;;;;;;;6.00;4.27;;;;;;;;;;744893;185;926048;-70
2023/08/12 08:02:26;;;;;;;4.50;3.67;;;;;;;;;;748424;185;918767;-71
2023/08/12 08:04:52;;;;;;;5.27;3.73;;;;;;;;;;743254;185;918638;-72
2023/08/12 08:07:18;;;;;;;8.03;3.80;;;;;;;;;;744845;185;817905;-70
2023/08/12 08:09:44;;;;;;;5.50;3.47;;;;;;;;;;749265;185;925648;-70
2023/08/12 08:12:09;;;;;;;9.83;3.60;;;;;;;;;;745930;185;919736;-71
2023/08/12 08:14:35;;;;;;;6.10;3.53;;;;;;;;;;743602;185;918869;-71
2023/08/12 08:17:01;;;;;;;5.72;2.85;;;;;;;;;;745089;185;862057;-69
2023/08/12 08:19:27;;;;;;;4.57;3.33;;;;;;;;;;748593;184;919959;-73
2023/08/12 08:21:53;;;;;;;4.57;3.37;;;;;;;;;;745859;185;919297;-72
2023/08/12 08:24:19;;;;;;;4.10;3.20;;;;;;;;;;745368;185;917254;-69
2023/08/12 08:26:47;;;;;;;6.10;3.30;;;;;;;;;;748731;185;918837;-71
2023/08/12 08:29:13;;;;;;;4.30;2.97;;;;;;;;;;750761;183;874027;-71
2023/08/12 08:31:39;;;;;;;4.65;2.78;;;;;;;;;;746021;184;918449;-72
2023/08/12 08:34:05;;;;;;;8.10;3.20;;;;;;;;;;750494;185;918035;-72
2023/08/12 08:36:30;;;;;;;4.20;3.07;;;;;;;;;;740725;184;864807;-70
2023/08/12 08:38:56;;;;;;;3.97;2.90;;;;;;;;;;746214;185;818940;-72
2023/08/12 08:41:22;;;;;;;3.93;2.70;;;;;;;;;;746236;185;918444;-71
2023/08/12 08:43:48;;;;;;;4.10;2.83;;;;;;;;;;757486;184;898998;-72
2023/08/12 08:46:16;;;;;;;4.43;2.97;;;;;;;;;;741519;185;919649;-71
2023/08/12 08:48:41;;;;;;;5.83;3.03;;;;;;;;;;754300;184;918623;-72
2023/08/12 08:51:07;;;;;;;5.50;3.07;;;;;;;;;;749627;185;919369;-71
2023/08/12 08:53:33;;;;;;;5.33;3.10;;;;;;;;;;742256;185;918570;-71
2023/08/12 08:55:59;;;;;;;4.70;3.40;;;;;;;;;;742900;186;919129;-73
2023/08/12 08:58:24;;;;;;;5.47;3.07;;;;;;;;;;744531;186;816504;-72
2023/08/12 09:00:50;;;;;;;5.17;2.93;;;;;;;;;;741601;186;816306;-72
2023/08/12 09:03:16;;;;;;;5.07;3.13;;;;;;;;;;739137;186;924342;-72
2023/08/12 09:05:42;;;;;;;4.27;2.77;;;;;;;;;;739383;186;912088;-71
2023/08/12 09:08:10;;;;;;;4.30;2.73;;;;;;;;;;744090;187;917779;-74
2023/08/12 09:10:34;;;;;;;3.87;2.70;;;;;;;;;;747164;184;920448;-74
2023/08/12 09:12:59;;;;;;;3.63;2.80;;;;;;;;;;746590;184;892982;-75
2023/08/12 09:15:25;;;;;;;4.83;3.07;;;;;;;;;;752023;184;711729;-74
2023/08/12 09:17:51;;;;;;;3.77;2.60;;;;;;;;;;740306;185;919212;-74
2023/08/12 09:20:17;;;;;;;4.60;2.80;;;;;;;;;;743785;185;888243;-74
2023/08/12 09:22:43;;;;;;;4.90;2.80;;;;;;;;;;751275;185;903728;-75
2023/08/12 09:25:09;;;;;;;5.53;2.70;;;;;;;;;;747527;184;919063;-74
2023/08/12 09:27:35;;;;;;;3.80;2.47;;;;;;;;;;745507;184;922974;-74
2023/08/12 09:30:01;;;;;;;5.25;2.65;;;;;;;;;;748328;184;919513;-73
2023/08/12 09:32:28;;;;;;;5.53;2.60;;;;;;;;;;746973;184;918093;-75
2023/08/12 09:34:53;;;;;;;4.37;3.00;;;;;;;;;;746003;183;919301;-75
2023/08/12 09:37:18;;;;;;;4.57;2.57;;;;;;;;;;744225;183;900804;-74
2023/08/12 09:39:45;;;;;;;4.80;2.60;;;;;;;;;;750870;184;838058;-75
2023/08/12 09:42:11;;;;;;;4.27;2.20;;;;;;;;;;746760;184;919722;-75
2023/08/12 09:44:37;;;;;;;3.60;2.20;;;;;;;;;;745132;184;917567;-75
2023/08/12 09:47:03;;;;;;;3.60;2.53;;;;;;;;;;753323;184;818983;-75
2023/08/12 09:49:28;;;;;;;3.40;2.53;;;;;;;;;;753874;184;816035;-75
2023/08/12 09:51:54;;;;;;;3.90;2.97;;;;;;;;;;741499;186;919262;-75
2023/08/12 09:54:20;;;;;;;4.27;2.90;;;;;;;;;;750219;185;864148;-74
2023/08/12 09:56:48;;;;;;;8.53;2.80;;;;;;;;;;751693;185;916237;-75
2023/08/12 09:59:14;;;;;;;5.70;2.53;;;;;;;;;;750760;184;848565;-75
2023/08/12 10:01:41;;;;;;;4.30;2.60;;;;;;;;;;746256;185;900040;-75
2023/08/12 10:04:05;;;;;;;3.63;2.73;;;;;;;;;;750656;186;640928;-75
2023/08/12 10:06:31;;;;;;;4.00;3.30;;;;;;;;;;746649;183;818455;-75
2023/08/12 10:08:57;;;;;;;3.57;2.70;;;;;;;;;;742181;185;919025;-75
2023/08/12 10:11:23;;;;;;;6.87;2.43;;;;;;;;;;752541;185;919091;-75
2023/08/12 10:13:49;;;;;;;3.97;2.67;;;;;;;;;;746788;185;923772;-67
2023/08/12 10:16:15;;;;;;;5.17;2.80;;;;;;;;;;747730;185;917071;-65
2023/08/12 10:18:41;;;;;;;3.70;2.80;;;;;;;;;;753002;185;639681;-65
2023/08/12 10:21:06;;;;;;;4.00;2.67;;;;;;;;;;747245;185;816808;-66
2023/08/12 10:23:32;;;;;;;3.70;2.17;;;;;;;;;;746310;184;918730;-77
2023/08/12 10:25:58;;;;;;;3.90;2.40;;;;;;;;;;750177;184;637020;-66
2023/08/12 10:28:24;;;;;;;3.93;2.77;;;;;;;;;;752012;183;628939;-67
2023/08/12 10:30:50;;;;;;;6.50;2.47;;;;;;;;;;751169;184;798165;-67
2023/08/12 10:33:16;;;;;;;3.73;2.87;;;;;;;;;;745610;184;921186;-76
2023/08/12 10:35:43;;;;;;;5.40;3.10;;;;;;;;;;748596;185;818435;-66
2023/08/12 10:38:08;;;;;;;5.30;2.90;;;;;;;;;;747674;184;919202;-66
2023/08/12 10:40:34;;;;;;;3.37;2.60;;;;;;;;;;743313;184;918402;-77
2023/08/12 10:43:00;;;;;;;5.70;2.90;;;;;;;;;;738018;185;921944;-76
2023/08/12 10:45:26;;;;;;;4.93;2.70;;;;;;;;;;744488;184;917635;-65
2023/08/12 10:47:52;;;;;;;3.50;2.70;;;;;;;;;;732524;186;918926;-64
2023/08/12 10:50:19;;;;;;;3.50;2.40;;;;;;;;;;738843;182;917468;-66
2023/08/12 10:52:45;;;;;;;3.50;2.30;;;;;;;;;;750897;184;918532;-75
2023/08/12 10:55:16;;;;;;;3.80;2.63;;;;;;;;;;754783;183;918579;-64
2023/08/12 10:57:42;;;;;;;6.75;2.62;;;;;;;;;;744518;184;916440;-75
2023/08/12 11:00:09;;;;;;;4.00;2.67;;;;;;;;;;752196;185;920812;-75
2023/08/12 11:02:36;;;;;;;4.27;2.60;;;;;;;;;;747747;184;919149;-65
2023/08/12 11:05:02;;;;;;;3.63;2.90;;;;;;;;;;745784;185;934481;-65
2023/08/12 11:07:28;;;;;;;4.60;2.40;;;;;;;;;;745986;184;914793;-75
2023/08/12 11:09:54;;;;;;;4.50;2.30;;;;;;;;;;750261;184;921110;-76
2023/08/12 11:12:26;;;;;;;8.63;2.30;;;;;;;;;;747432;185;816920;-66
2023/08/12 11:14:54;;;;;;;3.07;1.93;;;;;;;;;;749021;185;816653;-75
2023/08/12 11:17:20;;;;;;;3.13;2.30;;;;;;;;;;748896;185;815742;-71
2023/08/12 11:19:45;;;;;;;4.00;2.80;;;;;;;;;;750617;184;917714;-74
2023/08/12 11:22:12;;;;;;;3.03;2.33;;;;;;;;;;742677;185;907580;-73
2023/08/12 11:24:37;;;;;;;4.13;2.13;;;;;;;;;;740699;184;913743;-65
2023/08/12 11:27:03;;;;;;;4.50;2.70;;;;;;;;;;747821;188;640293;-75
2023/08/12 11:29:29;;;;;;;11.90;3.13;;;;;;;;;;745374;187;626178;-65
2023/08/12 11:31:55;;;;;;;4.70;2.20;;;;;;;;;;748859;185;632042;-75
2023/08/12 11:34:20;;;;;;;4.00;2.80;;;;;;;;;;750956;185;632362;-65
2023/08/12 11:36:46;;;;;;;5.83;2.50;;;;;;;;;;745371;185;919886;-65
2023/08/12 11:39:12;;;;;;;3.37;2.25;;;;;;;;;;743206;185;919164;-74
2023/08/12 11:41:38;;;;;;;6.43;3.00;;;;;;;;;;752345;185;814745;-65
2023/08/12 11:44:04;;;;;;;4.00;2.13;;;;;;;;;;755866;184;628431;-65
2023/08/12 11:46:30;;;;;;;3.80;2.30;;;;;;;;;;751765;185;619081;-72
2023/08/12 11:48:56;;;;;;;3.90;2.40;;;;;;;;;;747687;184;634370;-65
2023/08/12 11:51:21;;;;;;;9.77;3.00;;;;;;;;;;752557;184;616351;-72
2023/08/12 11:53:47;;;;;;;5.53;2.60;;;;;;;;;;747978;184;619062;-73
2023/08/12 11:56:13;;;;;;;4.20;2.60;;;;;;;;;;741130;188;919499;-69
2023/08/12 11:58:39;;;;;;;6.43;2.77;;;;;;;;;;738511;186;879416;-62
2023/08/12 12:01:05;;;;;;;9.70;2.67;;;;;;;;;;740759;186;919615;-71
2023/08/12 12:03:31;;;;;;;7.03;2.63;;;;;;;;;;748766;183;918286;-71
2023/08/12 12:05:56;;;;;;;4.70;2.67;;;;;;;;;;748886;184;920999;-64
2023/08/12 12:08:22;;;;;;;4.30;2.40;;;;;;;;;;737501;187;838230;-64
2023/08/12 12:10:48;;;;;;;5.87;2.73;;;;;;;;;;738216;187;919877;-71
2023/08/12 12:13:14;;;;;;;4.60;2.93;;;;;;;;;;740003;188;921623;-71
2023/08/12 12:15:42;;;;;;;4.40;3.10;;;;;;;;;;755354;183;623087;-73
2023/08/12 12:18:12;;;;;;;5.33;3.40;;;;;;;;;;752789;183;635390;-72
2023/08/12 12:20:44;;;;;;;3.83;2.50;;;;;;;;;;749171;184;618309;-72
2023/08/12 12:23:10;;;;;;;7.13;2.77;;;;;;;;;;748436;185;630975;-64
2023/08/12 12:25:36;;;;;;;3.67;2.40;;;;;;;;;;754296;183;920316;-64
2023/08/12 12:28:01;;;;;;;5.50;3.00;;;;;;;;;;746222;184;920668;-64
2023/08/12 12:30:27;;;;;;;4.10;2.83;;;;;;;;;;744496;184;919444;-71
2023/08/12 12:32:53;;;;;;;3.63;2.80;;;;;;;;;;753541;185;918182;-72
2023/08/12 12:35:19;;;;;;;5.07;2.87;;;;;;;;;;736538;188;922071;-63
2023/08/12 12:37:45;;;;;;;5.60;3.47;;;;;;;;;;746508;185;819640;-64
2023/08/12 12:40:11;;;;;;;2.97;2.20;;;;;;;;;;749040;184;919467;-64
2023/08/12 12:42:38;;;;;;;4.40;3.07;;;;;;;;;;742854;184;919387;-71
2023/08/12 12:45:03;;;;;;;11.33;2.40;;;;;;;;;;745269;185;918483;-64
2023/08/12 12:47:29;;;;;;;3.63;2.47;;;;;;;;;;747430;185;919483;-71
2023/08/12 12:49:55;;;;;;;4.93;2.60;;;;;;;;;;751817;183;919234;-63
2023/08/12 12:52:21;;;;;;;4.53;2.40;;;;;;;;;;747433;183;916924;-63
2023/08/12 12:54:47;;;;;;;4.13;2.40;;;;;;;;;;743771;184;917878;-73
2023/08/12 12:57:12;;;;;;;3.80;2.73;;;;;;;;;;748968;184;919121;-73
2023/08/12 12:59:38;;;;;;;5.90;2.57;;;;;;;;;;744638;184;1328227;-63
2023/08/12 13:02:04;;;;;;;4.27;2.30;;;;;;;;;;746344;185;820268;-72
2023/08/12 13:04:30;;;;;;;4.50;2.73;;;;;;;;;;748723;186;919433;-72
2023/08/12 13:06:56;;;;;;;3.90;2.83;;;;;;;;;;745908;185;817680;-65
2023/08/12 13:09:22;;;;;;;3.83;2.78;;;;;;;;;;744829;185;821560;-65
2023/08/12 13:11:47;;;;;;;4.20;2.63;;;;;;;;;;750396;185;918936;-63
2023/08/12 13:14:13;;;;;;;4.17;2.97;;;;;;;;;;744897;185;918835;-64
2023/08/12 13:16:39;;;;;;;3.43;2.60;;;;;;;;;;753531;183;912120;-71
2023/08/12 13:19:05;;;;;;;5.33;2.93;;;;;;;;;;749699;184;935964;-64
2023/08/12 13:21:32;;;;;;;5.20;3.17;;;;;;;;;;750766;184;942427;-72
2023/08/12 13:23:57;;;;;;;3.63;2.70;;;;;;;;;;747352;184;919911;-65
2023/08/12 13:26:22;;;;;;;7.77;3.50;;;;;;;;;;744809;184;913013;-65
2023/08/12 13:28:48;;;;;;;4.17;2.90;;;;;;;;;;748982;186;919824;-73
2023/08/12 13:31:14;;;;;;;4.70;2.53;;;;;;;;;;742001;188;920894;-70
2023/08/12 13:33:40;;;;;;;6.10;2.93;;;;;;;;;;751210;185;919263;-72
2023/08/12 13:36:06;;;;;;;4.13;2.80;;;;;;;;;;746408;185;919610;-72
2023/08/12 13:38:32;;;;;;;6.60;2.60;;;;;;;;;;746774;184;911369;-62
2023/08/12 13:40:57;;;;;;;4.97;2.57;;;;;;;;;;750105;184;916253;-62
2023/08/12 13:43:23;;;;;;;6.90;2.80;;;;;;;;;;745301;184;917352;-64
2023/08/12 13:45:49;;;;;;;5.20;2.30;;;;;;;;;;750147;184;912932;-69
2023/08/12 13:48:15;;;;;;;4.23;2.53;;;;;;;;;;745924;185;918682;-64
2023/08/12 13:50:41;;;;;;;6.40;2.70;;;;;;;;;;744975;184;918705;-70
2023/08/12 13:53:07;;;;;;;4.37;3.00;;;;;;;;;;748775;185;920098;-71
2023/08/12 13:55:32;;;;;;;3.40;2.43;;;;;;;;;;745756;184;919648;-63
2023/08/12 13:57:58;;;;;;;5.73;3.00;;;;;;;;;;745343;184;921316;-63
2023/08/12 14:00:24;;;;;;;3.93;2.47;;;;;;;;;;747976;185;913204;-71
2023/08/12 14:02:50;;;;;;;3.30;2.53;;;;;;;;;;744013;185;916652;-70
2023/08/12 14:05:16;;;;;;;4.00;2.63;;;;;;;;;;741978;188;919071;-67
2023/08/12 14:07:42;;;;;;;4.80;2.37;;;;;;;;;;749987;184;918995;-70
2023/08/12 14:10:08;;;;;;;4.93;2.57;;;;;;;;;;747246;185;821191;-64
2023/08/12 14:12:33;;;;;;;5.00;2.67;;;;;;;;;;745769;185;814037;-70
2023/08/12 14:14:59;;;;;;;3.83;2.43;;;;;;;;;;744846;184;914561;-68
2023/08/12 14:17:25;;;;;;;4.13;2.93;;;;;;;;;;748420;184;917057;-68
2023/08/12 14:19:51;;;;;;;4.20;2.20;;;;;;;;;;744755;184;919896;-69